Time;durP1;ratioP1;P1;durP2;ratioP2;P2;SDS_P1;SDS_P2;PMS_P1;PMS_P2;Temp;Humidity;BMP_temperature;BMP_pressure;BME280_temperature;BME280_humidity;BME280_pressure;Samples;Min_cycle;Max_cycle;Signal;HPM_P1;HPM_P2
2022/11/11 00:00:32;;;;;;;19.20;5.03;;;4.10;99.90;;;;;;5052341;28;20205;-60
2022/11/11 00:02:58;;;;;;;95.33;8.20;;;4.00;99.90;;;;;;5060459;28;20421;-60
2022/11/11 00:05:24;;;;;;;110.70;10.30;;;4.00;99.90;;;;;;5063892;28;20904;-60
2022/11/11 00:08:01;;;;;;;117.60;8.60;;;4.00;99.90;;;;;;5069556;28;20519;-59
2022/11/11 00:10:28;;;;;;;52.90;6.10;;;3.90;99.90;;;;;;5046643;28;20471;-61
2022/11/11 00:13:00;;;;;;;18.80;5.30;;;3.90;99.90;;;;;;5067109;28;20440;-60
2022/11/11 00:15:27;;;;;;;37.17;6.30;;;3.90;99.90;;;;;;5067421;28;20424;-59
2022/11/11 00:26:10;;;;;;;18.63;4.93;;;3.90;99.90;;;;;;5069530;28;20423;-59
2022/11/11 00:28:36;;;;;;;24.63;5.77;;;3.90;99.90;;;;;;5063350;28;20432;-59
2022/11/11 00:31:07;;;;;;;91.63;7.43;;;3.80;99.90;;;;;;5068029;28;20444;-58
2022/11/11 00:33:33;;;;;;;17.80;4.47;;;3.80;99.90;;;;;;5044799;28;20174;-59
2022/11/11 00:35:59;;;;;;;65.87;6.17;;;3.80;99.90;;;;;;5060110;28;20444;-59
2022/11/11 00:41:10;;;;;;;45.93;6.90;;;3.80;99.90;;;;;;5061193;28;20581;-59
2022/11/11 00:43:36;;;;;;;32.40;6.80;;;3.80;99.90;;;;;;5061846;28;20428;-59
2022/11/11 00:51:30;;;;;;;28.73;4.80;;;3.70;99.90;;;;;;5060715;28;20545;-59
2022/11/11 00:53:55;;;;;;;20.73;4.30;;;3.70;99.90;;;;;;5063038;28;22380;-59
2022/11/11 00:56:22;;;;;;;26.67;4.53;;;3.70;99.90;;;;;;5048570;28;20221;-58
2022/11/11 00:58:48;;;;;;;16.40;3.90;;;3.70;99.90;;;;;;5061567;28;20250;-58
2022/11/11 01:01:14;;;;;;;18.33;4.07;;;3.60;99.90;;;;;;5045597;28;20552;-60
2022/11/11 01:03:39;;;;;;;46.70;4.93;;;3.60;99.90;;;;;;5065734;28;20178;-59
2022/11/11 01:06:05;;;;;;;42.50;4.43;;;3.60;99.90;;;;;;5069264;28;20444;-59
2022/11/11 01:08:32;;;;;;;16.87;4.37;;;3.60;99.90;;;;;;5066803;28;20236;-59
2022/11/11 01:10:57;;;;;;;20.57;3.67;;;3.60;99.90;;;;;;5059622;28;20506;-59
2022/11/11 01:13:29;;;;;;;25.30;4.17;;;3.50;99.90;;;;;;5063117;28;20428;-59
2022/11/11 01:16:06;;;;;;;18.07;4.27;;;3.50;99.90;;;;;;5061856;28;20230;-58
2022/11/11 01:18:32;;;;;;;42.37;3.83;;;3.50;99.90;;;;;;5058862;28;20463;-59
2022/11/11 01:21:04;;;;;;;83.13;6.40;;;3.50;99.90;;;;;;5065078;28;20456;-58
2022/11/11 01:23:31;;;;;;;28.67;3.93;;;3.40;99.90;;;;;;5063885;28;20923;-58
2022/11/11 01:26:05;;;;;;;20.97;4.00;;;3.30;99.90;;;;;;5047393;28;20441;-58
2022/11/11 01:28:31;;;;;;;47.07;5.27;;;3.30;99.90;;;;;;5062155;28;20431;-59
2022/11/11 01:31:04;;;;;;;10.63;3.73;;;3.30;99.90;;;;;;5056183;28;20506;-60
2022/11/11 01:33:30;;;;;;;9.87;3.77;;;3.20;99.90;;;;;;5056965;28;20515;-59
2022/11/11 01:36:04;;;;;;;24.43;3.80;;;3.20;99.90;;;;;;5066748;28;20548;-59
2022/11/11 01:38:30;;;;;;;31.07;4.70;;;3.30;99.90;;;;;;5065322;28;20189;-59
2022/11/11 01:40:55;;;;;;;15.93;3.90;;;3.30;99.90;;;;;;5060864;28;20814;-61
2022/11/11 01:43:23;;;;;;;19.77;4.13;;;3.30;99.90;;;;;;5054087;28;20181;-59
2022/11/11 01:45:58;;;;;;;115.93;7.63;;;3.30;99.90;;;;;;5060150;28;20272;-59
2022/11/11 01:51:40;;;;;;;41.17;5.40;;;3.30;99.90;;;;;;5058064;28;20533;-60
2022/11/11 01:54:10;;;;;;;48.43;5.03;;;3.30;99.90;;;;;;5065354;28;21052;-60
2022/11/11 01:56:37;;;;;;;50.67;5.03;;;3.30;99.90;;;;;;5064944;28;20803;-60
2022/11/11 01:59:07;;;;;;;52.60;4.47;;;3.30;99.90;;;;;;5056611;28;20436;-59
2022/11/11 02:01:34;;;;;;;13.27;3.33;;;3.30;99.90;;;;;;5055199;28;20494;-60
2022/11/11 02:06:49;;;;;;;9.23;3.73;;;3.20;99.90;;;;;;5060538;28;20474;-60
2022/11/11 02:09:15;;;;;;;43.13;4.20;;;3.20;99.90;;;;;;5039084;28;22012;-60
2022/11/11 02:14:34;;;;;;;19.67;3.53;;;3.20;99.90;;;;;;5062750;28;20189;-60
2022/11/11 02:17:12;;;;;;;15.20;3.50;;;3.20;99.90;;;;;;5064232;28;20455;-59
2022/11/11 02:19:48;;;;;;;44.60;5.20;;;3.20;99.90;;;;;;5061998;28;20863;-59
2022/11/11 02:22:29;;;;;;;25.87;4.10;;;3.20;99.90;;;;;;5061561;28;20436;-59
2022/11/11 02:24:57;;;;;;;12.90;4.00;;;3.20;99.90;;;;;;5058727;28;20814;-59
2022/11/11 02:27:24;;;;;;;17.83;3.30;;;3.20;99.90;;;;;;5058658;28;20427;-59
2022/11/11 02:29:53;;;;;;;27.53;5.03;;;3.10;99.90;;;;;;5062408;28;20464;-59
2022/11/11 02:32:19;;;;;;;43.17;6.10;;;3.10;99.90;;;;;;5060118;28;20451;-59
2022/11/11 02:34:45;;;;;;;60.03;6.47;;;3.10;99.90;;;;;;5062709;28;20524;-59
2022/11/11 02:37:11;;;;;;;118.97;8.83;;;3.00;99.90;;;;;;5068979;28;20195;-59
2022/11/11 02:39:43;;;;;;;60.10;6.53;;;3.00;99.90;;;;;;5058741;28;20183;-59
2022/11/11 02:42:12;;;;;;;82.93;8.17;;;3.00;99.90;;;;;;5064347;28;20228;-60
2022/11/11 02:44:37;;;;;;;165.87;11.30;;;3.00;99.90;;;;;;5064438;28;20860;-59
2022/11/11 02:47:04;;;;;;;90.40;9.50;;;3.00;99.90;;;;;;5070918;28;20424;-59
2022/11/11 02:49:29;;;;;;;54.73;10.37;;;2.90;99.90;;;;;;5061385;28;20179;-59
2022/11/11 02:51:55;;;;;;;43.93;9.70;;;2.90;99.90;;;;;;5064230;28;21057;-60
2022/11/11 02:54:21;;;;;;;80.50;9.67;;;3.00;99.90;;;;;;5052325;28;20409;-59
2022/11/11 02:59:30;;;;;;;51.33;8.53;;;3.00;99.90;;;;;;5066165;28;20300;-59
2022/11/11 03:01:56;;;;;;;62.70;8.80;;;3.00;99.90;;;;;;5064823;28;20532;-59
2022/11/11 03:04:22;;;;;;;17.00;5.63;;;3.00;99.90;;;;;;5061500;28;20174;-60
2022/11/11 03:06:47;;;;;;;56.63;7.80;;;3.00;99.90;;;;;;5044865;28;20266;-59
2022/11/11 03:09:13;;;;;;;24.77;7.60;;;3.00;99.90;;;;;;5063156;28;20170;-60
2022/11/11 03:11:38;;;;;;;14.17;4.87;;;3.00;99.90;;;;;;5063410;28;21222;-60
2022/11/11 03:14:04;;;;;;;74.23;9.70;;;3.00;99.90;;;;;;5066021;28;20183;-60
2022/11/11 03:19:14;;;;;;;70.13;12.13;;;2.90;99.90;;;;;;5065754;28;20660;-59
2022/11/11 03:21:40;;;;;;;103.90;10.90;;;2.90;99.90;;;;;;5058109;28;20448;-60
2022/11/11 03:24:05;;;;;;;46.30;11.30;;;3.00;99.90;;;;;;5060947;28;20206;-59
2022/11/11 03:26:31;;;;;;;40.73;7.27;;;3.00;99.90;;;;;;5051413;28;20178;-59
2022/11/11 03:28:57;;;;;;;106.87;10.50;;;2.90;99.90;;;;;;5059810;28;20684;-59
2022/11/11 03:31:22;;;;;;;38.20;7.67;;;3.00;99.90;;;;;;5066687;28;20221;-60
2022/11/11 03:33:48;;;;;;;22.67;8.10;;;3.00;99.90;;;;;;5069289;28;20186;-60
2022/11/11 03:36:14;;;;;;;38.43;7.73;;;2.90;99.90;;;;;;5062065;28;20196;-60
2022/11/11 03:38:40;;;;;;;34.63;7.80;;;2.90;99.90;;;;;;5048468;28;20175;-59
2022/11/11 03:41:05;;;;;;;22.17;7.33;;;2.90;99.90;;;;;;5063133;28;20199;-60
2022/11/11 03:43:32;;;;;;;99.40;9.10;;;2.80;99.90;;;;;;5064931;28;20185;-60
2022/11/11 03:46:00;;;;;;;36.60;7.03;;;2.80;99.90;;;;;;5068647;28;20178;-60
2022/11/11 03:48:28;;;;;;;30.97;5.60;;;2.80;99.90;;;;;;5065324;28;20431;-60
2022/11/11 03:50:53;;;;;;;33.47;5.73;;;2.80;99.90;;;;;;5063801;28;20468;-59
2022/11/11 03:53:20;;;;;;;77.33;8.00;;;2.80;99.90;;;;;;5066996;28;20852;-60
2022/11/11 03:55:46;;;;;;;134.97;10.90;;;2.80;99.90;;;;;;5067261;28;20221;-60
2022/11/11 03:58:12;;;;;;;91.63;9.57;;;2.80;99.90;;;;;;5059569;28;20428;-59
2022/11/11 04:00:38;;;;;;;330.97;20.20;;;2.80;99.90;;;;;;5068092;28;20444;-59
2022/11/11 04:11:28;;;;;;;85.37;7.57;;;2.70;99.90;;;;;;5061016;28;20474;-59
2022/11/11 04:16:42;;;;;;;26.43;4.90;;;2.60;99.90;;;;;;5061644;28;20483;-60
2022/11/11 04:22:02;;;;;;;45.07;6.00;;;2.50;99.90;;;;;;5031478;28;20212;-60
2022/11/11 04:27:15;;;;;;;40.40;6.80;;;2.50;99.90;;;;;;5063347;28;20491;-60
2022/11/11 04:29:41;;;;;;;19.17;5.33;;;2.60;99.90;;;;;;5044056;28;20848;-59
2022/11/11 04:34:58;;;;;;;19.13;5.90;;;2.60;99.90;;;;;;5071221;28;20504;-60
2022/11/11 04:37:25;;;;;;;23.43;6.50;;;2.60;99.90;;;;;;5068862;28;20543;-59
2022/11/11 04:42:37;;;;;;;29.40;6.37;;;2.70;99.90;;;;;;5063598;28;20427;-59
2022/11/11 04:48:00;;;;;;;22.03;5.30;;;2.60;99.90;;;;;;5069209;28;20433;-59
2022/11/11 04:50:32;;;;;;;27.23;6.50;;;2.70;99.90;;;;;;5065579;28;20460;-59
2022/11/11 04:52:59;;;;;;;42.33;7.03;;;2.70;99.90;;;;;;5060780;28;20434;-60
2022/11/11 04:58:10;;;;;;;50.63;9.20;;;2.70;99.90;;;;;;5062126;28;20424;-60
2022/11/11 05:00:36;;;;;;;34.20;7.27;;;2.80;99.90;;;;;;5062760;28;20508;-59
2022/11/11 05:03:14;;;;;;;23.00;6.90;;;2.80;99.90;;;;;;5045116;28;20433;-60
2022/11/11 05:11:13;;;;;;;59.53;8.17;;;2.80;99.90;;;;;;5062782;28;20483;-60
2022/11/11 05:22:07;;;;;;;67.27;7.37;;;2.80;99.90;;;;;;5061278;28;20450;-61
2022/11/11 05:27:17;;;;;;;32.57;6.30;;;2.80;99.90;;;;;;5056009;28;20471;-62
2022/11/11 05:29:42;;;;;;;36.77;6.80;;;2.80;99.90;;;;;;5040003;28;20869;-60
2022/11/11 05:32:08;;;;;;;45.60;5.80;;;2.80;99.90;;;;;;5058190;28;20235;-57
2022/11/11 05:34:33;;;;;;;66.20;7.73;;;2.70;99.90;;;;;;5059757;28;20210;-60
2022/11/11 05:36:59;;;;;;;27.97;6.50;;;2.70;99.90;;;;;;5061064;28;20198;-60
2022/11/11 05:39:25;;;;;;;33.53;6.60;;;2.70;99.90;;;;;;5057316;28;20178;-61
2022/11/11 05:41:50;;;;;;;56.20;7.10;;;2.70;99.90;;;;;;5056843;28;20230;-57
2022/11/11 05:44:16;;;;;;;25.23;6.30;;;2.70;99.90;;;;;;5060123;28;20177;-59
2022/11/11 05:46:41;;;;;;;27.53;7.40;;;2.70;99.90;;;;;;5041751;28;20183;-60
2022/11/11 05:49:25;;;;;;;72.80;8.40;;;2.60;99.90;;;;;;5064189;28;20261;-59
2022/11/11 05:51:52;;;;;;;51.73;9.37;;;2.60;99.90;;;;;;5063906;28;20293;-59
2022/11/11 05:54:17;;;;;;;130.73;10.47;;;2.60;99.90;;;;;;5063036;28;20424;-60
2022/11/11 05:56:43;;;;;;;40.43;8.60;;;2.60;99.90;;;;;;5058799;28;20453;-59
2022/11/11 05:59:09;;;;;;;37.40;9.60;;;2.50;99.90;;;;;;5049957;28;20199;-59
2022/11/11 06:01:35;;;;;;;24.87;8.17;;;2.50;99.90;;;;;;5052289;28;20451;-59
2022/11/11 06:04:01;;;;;;;14.27;6.23;;;2.50;99.90;;;;;;5066660;28;20246;-58
2022/11/11 06:06:27;;;;;;;24.63;6.87;;;2.50;99.90;;;;;;5062087;28;20433;-59
2022/11/11 06:08:53;;;;;;;12.67;5.90;;;2.50;99.90;;;;;;5064747;28;20207;-59
2022/11/11 06:11:19;;;;;;;30.07;5.50;;;2.50;99.90;;;;;;5058819;28;20437;-60
2022/11/11 06:13:45;;;;;;;23.20;5.60;;;2.50;99.90;;;;;;5060936;28;20179;-59
2022/11/11 06:16:10;;;;;;;23.80;4.93;;;2.50;99.90;;;;;;5064712;28;20836;-59
2022/11/11 06:18:36;;;;;;;61.63;6.47;;;2.50;99.90;;;;;;5069272;28;20231;-58
2022/11/11 06:21:02;;;;;;;26.97;5.20;;;2.40;99.90;;;;;;5073232;28;20215;-58
2022/11/11 06:23:28;;;;;;;21.97;6.67;;;2.40;99.90;;;;;;5065118;28;20204;-59
2022/11/11 06:26:13;;;;;;;15.70;5.93;;;2.30;99.90;;;;;;5070122;28;20175;-58
2022/11/11 06:28:50;;;;;;;42.33;9.30;;;2.30;99.90;;;;;;5072883;28;20490;-59
2022/11/11 06:31:19;;;;;;;94.40;13.87;;;2.30;99.90;;;;;;5068702;28;20453;-58
2022/11/11 06:33:45;;;;;;;86.30;13.10;;;2.30;99.90;;;;;;5053368;28;20765;-59
2022/11/11 06:36:12;;;;;;;68.17;10.63;;;2.30;99.90;;;;;;5053142;28;20506;-58
2022/11/11 06:38:38;;;;;;;132.10;12.77;;;2.30;99.90;;;;;;5071026;28;20264;-59
2022/11/11 06:41:05;;;;;;;291.57;19.13;;;2.30;99.90;;;;;;5063708;28;20500;-58
2022/11/11 06:43:30;;;;;;;68.77;9.97;;;2.30;99.90;;;;;;5072768;28;20418;-58
2022/11/11 06:45:56;;;;;;;55.47;7.80;;;2.30;99.90;;;;;;5071466;28;20413;-58
2022/11/11 06:48:25;;;;;;;44.13;10.23;;;2.30;99.90;;;;;;5069068;28;20209;-56
2022/11/11 06:50:51;;;;;;;138.37;14.27;;;2.30;99.90;;;;;;5065238;28;20454;-58
2022/11/11 06:53:18;;;;;;;47.20;13.20;;;2.40;99.90;;;;;;5055772;28;20900;-58
2022/11/11 06:55:43;;;;;;;33.60;9.53;;;2.40;99.90;;;;;;5075919;28;20424;-58
2022/11/11 06:58:17;;;;;;;22.37;7.07;;;2.40;99.90;;;;;;5065107;28;20528;-58
2022/11/11 07:00:44;;;;;;;15.33;4.97;;;2.50;99.90;;;;;;5065928;28;20208;-59
2022/11/11 07:03:12;;;;;;;33.93;7.07;;;2.50;99.90;;;;;;5072654;28;20417;-59
2022/11/11 07:05:38;;;;;;;35.93;6.50;;;2.50;99.90;;;;;;5071667;28;20477;-58
2022/11/11 07:08:09;;;;;;;49.57;7.37;;;2.50;99.90;;;;;;5069409;28;20555;-59
2022/11/11 07:10:37;;;;;;;123.80;11.30;;;2.50;99.90;;;;;;5054102;28;20633;-59
2022/11/11 07:13:03;;;;;;;73.20;8.50;;;2.50;99.90;;;;;;5054913;28;20496;-58
2022/11/11 07:15:29;;;;;;;113.70;13.00;;;2.50;99.90;;;;;;5055028;28;20448;-59
2022/11/11 07:17:55;;;;;;;44.63;11.10;;;2.50;99.90;;;;;;5066447;28;20428;-59
2022/11/11 07:20:20;;;;;;;22.90;8.50;;;2.50;99.90;;;;;;5052203;28;20406;-59
2022/11/11 07:22:47;;;;;;;25.43;8.77;;;2.50;99.90;;;;;;5050170;28;20181;-59
2022/11/11 07:25:12;;;;;;;23.33;7.70;;;2.50;99.90;;;;;;5075226;28;20235;-58
2022/11/11 07:27:39;;;;;;;26.53;9.40;;;2.60;99.90;;;;;;5064306;28;20416;-58
2022/11/11 07:30:07;;;;;;;10.53;5.63;;;2.60;99.90;;;;;;5072403;28;20170;-58
2022/11/11 07:32:32;;;;;;;13.07;5.13;;;2.60;99.90;;;;;;5053945;28;20512;-59
2022/11/11 07:34:58;;;;;;;16.23;5.10;;;2.70;99.90;;;;;;5076697;28;20518;-58
2022/11/11 07:37:24;;;;;;;10.37;4.30;;;2.70;99.90;;;;;;5065090;28;20202;-58
2022/11/11 07:39:49;;;;;;;5.10;3.10;;;2.70;99.90;;;;;;5051957;28;20242;-59
2022/11/11 07:42:15;;;;;;;5.07;3.33;;;2.70;99.90;;;;;;5051892;28;20183;-59
2022/11/11 07:44:41;;;;;;;5.47;3.13;;;2.80;99.90;;;;;;5058342;28;20230;-59
2022/11/11 07:47:07;;;;;;;4.90;3.33;;;2.80;99.90;;;;;;5069954;28;20193;-58
2022/11/11 07:49:32;;;;;;;4.30;2.90;;;2.90;99.90;;;;;;5070192;28;20412;-61
2022/11/11 07:51:58;;;;;;;9.83;3.27;;;2.90;99.90;;;;;;5069538;28;20218;-59
2022/11/11 07:54:24;;;;;;;6.47;3.10;;;2.90;99.90;;;;;;5064048;28;20172;-59
2022/11/11 07:56:49;;;;;;;6.70;3.63;;;3.00;99.90;;;;;;5072023;28;20205;-59
2022/11/11 07:59:15;;;;;;;13.40;5.00;;;3.10;99.90;;;;;;5072034;28;20203;-59
2022/11/11 08:01:40;;;;;;;28.17;9.60;;;3.10;99.90;;;;;;5069050;28;20273;-59
2022/11/11 08:04:06;;;;;;;32.67;7.60;;;3.10;99.90;;;;;;5066254;28;20167;-59
2022/11/11 08:06:32;;;;;;;27.30;9.10;;;3.10;99.90;;;;;;5070490;28;20178;-59
2022/11/11 08:08:57;;;;;;;30.47;9.13;;;3.20;99.90;;;;;;5071889;28;20210;-59
2022/11/11 08:14:07;;;;;;;27.10;10.57;;;3.20;99.90;;;;;;5071283;28;20200;-59
2022/11/11 08:16:33;;;;;;;34.60;9.20;;;3.30;99.90;;;;;;5070919;28;20518;-59
2022/11/11 08:18:59;;;;;;;29.27;9.67;;;3.40;99.90;;;;;;5065208;28;20671;-59
2022/11/11 08:21:25;;;;;;;35.60;10.23;;;3.40;99.90;;;;;;5067782;28;20217;-58
2022/11/11 08:23:51;;;;;;;19.50;8.00;;;3.50;99.90;;;;;;5071107;28;20244;-59
2022/11/11 08:26:17;;;;;;;13.63;5.60;;;3.50;99.90;;;;;;5070655;28;20763;-58
2022/11/11 08:28:43;;;;;;;23.47;4.60;;;3.60;99.90;;;;;;5055509;28;20471;-59
2022/11/11 08:31:09;;;;;;;17.50;5.67;;;3.60;99.90;;;;;;5071411;28;20474;-59
2022/11/11 08:33:35;;;;;;;44.73;9.30;;;3.60;99.90;;;;;;5071067;28;20413;-59
2022/11/11 08:36:03;;;;;;;32.87;6.30;;;3.70;99.90;;;;;;5077274;28;20970;-59
2022/11/11 08:38:28;;;;;;;19.67;5.73;;;3.70;99.90;;;;;;5056802;28;20413;-58
2022/11/11 08:40:54;;;;;;;24.50;5.87;;;3.70;99.90;;;;;;5051265;28;20430;-58
2022/11/11 08:43:21;;;;;;;33.17;8.53;;;3.80;99.90;;;;;;5068597;28;20182;-59
2022/11/11 08:45:47;;;;;;;28.90;9.70;;;3.80;99.90;;;;;;5062561;28;20722;-59
2022/11/11 08:48:13;;;;;;;29.10;9.87;;;3.80;99.90;;;;;;5051738;28;20430;-59
2022/11/11 08:50:40;;;;;;;40.23;12.13;;;3.90;99.90;;;;;;5060476;28;20229;-59
2022/11/11 08:53:09;;;;;;;61.77;17.27;;;3.90;99.90;;;;;;5053289;28;20516;-59
2022/11/11 08:55:35;;;;;;;27.63;9.40;;;3.90;99.90;;;;;;5060616;28;20452;-59
2022/11/11 08:58:03;;;;;;;28.83;10.10;;;4.00;99.90;;;;;;5059841;28;21149;-60
2022/11/11 09:00:29;;;;;;;23.23;9.10;;;4.10;99.90;;;;;;5069529;28;20440;-58
2022/11/11 09:03:00;;;;;;;36.63;11.77;;;4.10;99.90;;;;;;5050456;28;20426;-59
2022/11/11 09:05:26;;;;;;;33.07;9.43;;;4.20;99.90;;;;;;5049635;28;20651;-59
2022/11/11 09:07:52;;;;;;;39.67;10.80;;;4.20;99.90;;;;;;5071045;28;20412;-59
2022/11/11 09:10:18;;;;;;;33.37;9.50;;;4.30;99.90;;;;;;5070083;28;20186;-60
2022/11/11 09:12:43;;;;;;;32.40;9.90;;;4.30;99.90;;;;;;5062080;28;20166;-59
2022/11/11 09:15:09;;;;;;;35.07;9.57;;;4.40;99.90;;;;;;5069122;28;20174;-59
2022/11/11 09:17:34;;;;;;;36.37;10.10;;;4.40;99.90;;;;;;5061393;28;20587;-59
2022/11/11 09:20:00;;;;;;;42.80;11.03;;;4.40;99.90;;;;;;5068369;28;20563;-59
2022/11/11 09:22:26;;;;;;;45.67;11.97;;;4.50;99.90;;;;;;5060151;28;20703;-59
2022/11/11 09:24:51;;;;;;;38.67;11.50;;;4.50;99.90;;;;;;5064437;28;20179;-60
2022/11/11 09:27:17;;;;;;;37.67;12.40;;;4.60;99.90;;;;;;5070531;28;20170;-59
2022/11/11 09:29:43;;;;;;;32.50;12.17;;;4.60;99.90;;;;;;5069426;28;20253;-59
2022/11/11 09:32:09;;;;;;;26.83;11.10;;;4.70;99.90;;;;;;5053350;28;20218;-59
2022/11/11 09:34:34;;;;;;;31.10;11.50;;;4.80;99.90;;;;;;5070616;28;20412;-60
2022/11/11 09:37:00;;;;;;;25.00;10.90;;;5.00;99.90;;;;;;5061360;28;20210;-59
2022/11/11 09:39:25;;;;;;;23.63;10.80;;;5.10;99.90;;;;;;5061581;28;20182;-59
2022/11/11 09:42:36;;;;;;;27.20;11.23;;;5.20;99.90;;;;;;5063401;28;20689;-59
2022/11/11 09:45:24;;;;;;;38.40;12.43;;;5.40;99.90;;;;;;4988450;28;20181;-59
2022/11/11 09:47:58;;;;;;;39.30;12.43;;;5.40;99.90;;;;;;5044146;28;20432;-59
2022/11/11 09:50:28;;;;;;;39.63;12.20;;;5.50;99.90;;;;;;5068916;28;20483;-59
2022/11/11 09:53:06;;;;;;;35.97;12.13;;;5.60;99.90;;;;;;5069449;28;20444;-59
2022/11/11 09:55:34;;;;;;;37.17;12.93;;;5.70;99.90;;;;;;5067065;28;20424;-59
2022/11/11 09:58:14;;;;;;;34.80;12.10;;;5.70;99.90;;;;;;5063815;28;20490;-59
2022/11/11 10:00:44;;;;;;;36.87;12.40;;;5.80;99.90;;;;;;5067763;28;20455;-60
2022/11/11 10:03:09;;;;;;;48.50;12.83;;;5.90;99.90;;;;;;5050571;28;20425;-60
2022/11/11 10:06:02;;;;;;;44.30;13.40;;;5.90;99.90;;;;;;5061804;28;20419;-61
2022/11/11 10:09:01;;;;;;;38.63;11.40;;;6.00;99.90;;;;;;5071204;28;20178;-59
2022/11/11 10:11:48;;;;;;;26.03;10.07;;;6.00;99.90;;;;;;5055431;28;20436;-58
2022/11/11 10:14:15;;;;;;;30.30;9.80;;;6.10;99.90;;;;;;5064217;28;20445;-59
2022/11/11 10:17:08;;;;;;;21.80;11.87;;;6.20;99.90;;;;;;5049911;28;20496;-59
2022/11/11 10:19:58;;;;;;;14.70;8.00;;;6.30;99.90;;;;;;5049575;28;20447;-59
2022/11/11 10:22:32;;;;;;;20.83;8.90;;;6.40;99.90;;;;;;5050649;28;20453;-59
2022/11/11 10:25:23;;;;;;;14.30;7.73;;;6.40;99.90;;;;;;5069697;28;20468;-59
2022/11/11 10:27:52;;;;;;;14.70;8.63;;;6.50;99.90;;;;;;5069701;28;20413;-59
2022/11/11 10:30:30;;;;;;;19.10;8.80;;;6.50;99.90;;;;;;5060734;28;20455;-59
2022/11/11 10:33:34;;;;;;;22.37;8.77;;;6.50;99.90;;;;;;5062798;28;20907;-59
2022/11/11 10:36:02;;;;;;;18.23;9.07;;;6.50;99.90;;;;;;5055202;28;20803;-59
2022/11/11 10:38:51;;;;;;;13.23;8.77;;;6.50;99.90;;;;;;5047519;28;20958;-59
2022/11/11 10:41:39;;;;;;;20.00;10.27;;;6.50;99.90;;;;;;5062443;28;20433;-59
2022/11/11 10:44:23;;;;;;;12.80;8.03;;;6.50;99.90;;;;;;5069497;28;20407;-59
2022/11/11 10:47:27;;;;;;;18.53;8.33;;;6.60;99.90;;;;;;5048459;28;20496;-59
2022/11/11 10:50:10;;;;;;;20.50;9.47;;;6.60;99.90;;;;;;5049898;28;20437;-59
2022/11/11 10:52:41;;;;;;;17.03;9.70;;;6.60;99.90;;;;;;5051343;28;20768;-59
2022/11/11 10:55:27;;;;;;;13.07;8.13;;;6.60;99.90;;;;;;5057913;28;20436;-59
2022/11/11 10:58:19;;;;;;;16.37;9.53;;;6.70;99.90;;;;;;5058497;28;20958;-57
2022/11/11 11:00:47;;;;;;;18.53;9.47;;;6.70;99.90;;;;;;5071851;28;20428;-58
2022/11/11 11:03:35;;;;;;;17.67;9.50;;;6.80;99.90;;;;;;5072980;28;20914;-59
2022/11/11 11:06:24;;;;;;;16.17;9.90;;;6.80;99.90;;;;;;5043280;28;20413;-59
2022/11/11 11:09:24;;;;;;;19.37;9.73;;;6.90;99.90;;;;;;5054607;28;20414;-59
2022/11/11 11:11:57;;;;;;;16.17;9.17;;;6.90;99.90;;;;;;5072008;28;20517;-58
2022/11/11 11:14:28;;;;;;;14.47;8.93;;;6.90;99.90;;;;;;5064745;28;20464;-59
2022/11/11 11:16:59;;;;;;;17.73;10.60;;;7.00;99.90;;;;;;5066629;28;20461;-59
2022/11/11 11:19:26;;;;;;;19.80;8.93;;;7.10;99.90;;;;;;5060106;28;20429;-59
2022/11/11 11:21:54;;;;;;;19.00;10.17;;;7.20;99.90;;;;;;5068008;28;20555;-59
2022/11/11 11:24:27;;;;;;;15.80;9.60;;;7.20;99.90;;;;;;5070802;28;20412;-59
2022/11/11 11:27:05;;;;;;;19.37;10.30;;;7.20;99.90;;;;;;5067280;28;20525;-59
2022/11/11 11:29:34;;;;;;;16.27;9.27;;;7.30;99.90;;;;;;5061540;28;20873;-57
2022/11/11 11:32:21;;;;;;;16.73;9.63;;;7.30;99.90;;;;;;5071982;28;20845;-59
2022/11/11 11:34:48;;;;;;;19.20;9.97;;;7.40;99.90;;;;;;5071104;28;20511;-59
2022/11/11 11:37:14;;;;;;;18.00;10.80;;;7.40;99.90;;;;;;5068695;28;20471;-59
2022/11/11 11:39:40;;;;;;;19.53;8.53;;;7.40;99.90;;;;;;5052799;28;20970;-61
2022/11/11 11:42:06;;;;;;;22.10;10.33;;;7.40;99.90;;;;;;5051183;28;20453;-57
2022/11/11 11:44:37;;;;;;;27.93;12.60;;;7.40;99.90;;;;;;5075789;28;20533;-58
2022/11/11 11:47:24;;;;;;;35.67;14.07;;;7.40;99.90;;;;;;5058587;28;20487;-60
2022/11/11 11:50:30;;;;;;;31.53;14.47;;;7.40;99.90;;;;;;5045767;28;20428;-59
2022/11/11 11:53:10;;;;;;;30.90;13.23;;;7.40;99.90;;;;;;5059716;28;20432;-59
2022/11/11 11:56:07;;;;;;;27.23;12.13;;;7.50;99.90;;;;;;5061533;28;20508;-59
2022/11/11 11:58:47;;;;;;;27.20;12.57;;;7.50;99.90;;;;;;5058200;28;20414;-59
2022/11/11 12:01:30;;;;;;;24.07;13.30;;;7.50;99.90;;;;;;5068351;28;20467;-59
2022/11/11 12:04:05;;;;;;;25.53;12.67;;;7.60;99.90;;;;;;5045926;28;20424;-59
2022/11/11 12:06:33;;;;;;;24.50;12.43;;;7.60;99.90;;;;;;5064157;28;20470;-59
2022/11/11 12:09:20;;;;;;;29.70;14.03;;;7.60;99.90;;;;;;5045133;28;20928;-59
2022/11/11 12:12:05;;;;;;;28.67;14.83;;;7.70;99.90;;;;;;5059720;28;20823;-58
2022/11/11 12:15:00;;;;;;;36.90;15.30;;;7.70;99.90;;;;;;5049094;28;20420;-60
2022/11/11 12:17:32;;;;;;;40.97;18.20;;;7.70;99.90;;;;;;5011811;28;20479;-60
2022/11/11 12:20:18;;;;;;;36.20;17.43;;;7.70;99.90;;;;;;5065829;28;20435;-59
2022/11/11 12:23:12;;;;;;;33.20;16.10;;;7.80;99.90;;;;;;5100826;22;20467;-57
2022/11/11 12:25:44;;;;;;;29.43;14.27;;;7.80;99.90;;;;;;5070389;28;20432;-55
2022/11/11 12:28:33;;;;;;;29.37;15.43;;;7.80;99.90;;;;;;5098588;28;20726;-55
2022/11/11 12:31:12;;;;;;;24.97;14.50;;;7.80;99.90;;;;;;5099185;28;20403;-56
2022/11/11 12:33:46;;;;;;;30.43;14.83;;;7.90;99.90;;;;;;5076198;28;20448;-55
2022/11/11 12:36:33;;;;;;;28.57;14.07;;;7.90;99.90;;;;;;5080509;28;20457;-55
2022/11/11 12:39:36;;;;;;;25.90;13.30;;;7.90;99.90;;;;;;5074483;28;20519;-55
2022/11/11 12:42:10;;;;;;;39.67;17.30;;;7.90;99.90;;;;;;5073646;28;21013;-56
2022/11/11 12:44:47;;;;;;;33.53;16.27;;;7.90;99.90;;;;;;5062194;28;20423;-57
2022/11/11 12:47:26;;;;;;;34.73;16.63;;;7.90;99.90;;;;;;5080151;28;20811;-58
2022/11/11 12:49:57;;;;;;;31.47;15.30;;;8.00;99.90;;;;;;5085154;28;20448;-57
2022/11/11 12:52:28;;;;;;;36.27;17.13;;;7.90;99.90;;;;;;5072737;28;21086;-56
2022/11/11 12:54:59;;;;;;;35.10;16.10;;;8.00;99.90;;;;;;5083453;28;20420;-57
2022/11/11 12:57:37;;;;;;;24.13;14.50;;;8.00;99.90;;;;;;5076048;28;20451;-56
2022/11/11 13:00:14;;;;;;;35.13;14.03;;;8.00;99.90;;;;;;5084626;28;20506;-56
2022/11/11 13:02:52;;;;;;;28.00;14.10;;;8.00;99.90;;;;;;5077631;28;20443;-55
2022/11/11 13:05:23;;;;;;;29.53;14.40;;;8.00;99.90;;;;;;5077174;28;20435;-55
2022/11/11 13:08:05;;;;;;;22.43;11.50;;;8.00;99.90;;;;;;5079585;28;20419;-56
2022/11/11 13:10:53;;;;;;;19.73;11.13;;;8.10;99.90;;;;;;5070590;28;20960;-54
2022/11/11 13:13:41;;;;;;;17.73;9.73;;;8.10;99.90;;;;;;5075061;28;20462;-54
2022/11/11 13:16:08;;;;;;;21.83;11.60;;;8.10;99.90;;;;;;5053862;28;20479;-57
2022/11/11 13:18:50;;;;;;;21.40;12.30;;;8.10;99.90;;;;;;5078504;28;20845;-55
2022/11/11 13:21:21;;;;;;;24.90;13.23;;;8.10;99.90;;;;;;5076395;28;20420;-57
2022/11/11 13:23:47;;;;;;;25.83;13.73;;;8.10;99.90;;;;;;5074002;28;20925;-57
2022/11/11 13:26:37;;;;;;;22.60;13.23;;;8.10;99.90;;;;;;5055976;28;20432;-56
2022/11/11 13:29:27;;;;;;;26.53;14.90;;;8.20;99.90;;;;;;5061332;28;20580;-58
2022/11/11 13:31:53;;;;;;;23.57;13.10;;;8.20;99.90;;;;;;5081293;28;20455;-56
2022/11/11 13:34:20;;;;;;;24.80;13.30;;;8.30;99.90;;;;;;5077695;28;20423;-56
2022/11/11 13:36:51;;;;;;;26.00;14.37;;;8.30;99.90;;;;;;5074245;28;20618;-57
2022/11/11 13:39:38;;;;;;;28.87;13.00;;;8.40;99.90;;;;;;5079157;28;20440;-56
2022/11/11 13:42:05;;;;;;;28.07;15.00;;;8.40;99.90;;;;;;5070339;28;20460;-58
2022/11/11 13:44:45;;;;;;;26.83;14.10;;;8.50;99.90;;;;;;5075158;28;20879;-57
2022/11/11 13:47:18;;;;;;;28.10;14.13;;;8.50;99.90;;;;;;5080016;28;20930;-57
2022/11/11 13:49:58;;;;;;;30.70;16.53;;;8.40;99.90;;;;;;5077057;28;20416;-55
2022/11/11 13:52:37;;;;;;;27.30;15.27;;;8.40;99.90;;;;;;5078230;28;20451;-57
2022/11/11 13:55:07;;;;;;;33.10;16.57;;;8.30;99.90;;;;;;5081092;28;21194;-56
2022/11/11 13:57:41;;;;;;;29.40;15.40;;;8.30;99.90;;;;;;5076548;28;20934;-56
2022/11/11 14:00:21;;;;;;;27.60;14.50;;;8.30;99.90;;;;;;5082842;28;20438;-55
2022/11/11 14:02:48;;;;;;;23.90;14.10;;;8.30;99.90;;;;;;5077088;28;20943;-58
2022/11/11 14:05:21;;;;;;;23.90;12.57;;;8.30;99.90;;;;;;5082712;28;20932;-58
2022/11/11 14:07:49;;;;;;;21.90;12.73;;;8.30;99.90;;;;;;5076979;28;20427;-57
2022/11/11 14:10:18;;;;;;;26.80;13.80;;;8.30;99.90;;;;;;5080846;28;20427;-58
2022/11/11 14:12:46;;;;;;;28.57;14.23;;;8.20;99.90;;;;;;5069857;28;20510;-57
2022/11/11 14:15:42;;;;;;;23.50;13.57;;;8.30;99.90;;;;;;5086763;28;20439;-56
2022/11/11 14:18:31;;;;;;;23.37;14.23;;;8.20;99.90;;;;;;5077615;28;20463;-56
2022/11/11 14:20:56;;;;;;;20.83;12.80;;;8.20;99.90;;;;;;5081781;28;21035;-58